Time;durP1;ratioP1;P1;durP2;ratioP2;P2;SDS_P1;SDS_P2;PMS_P1;PMS_P2;Temp;Humidity;BMP_temperature;BMP_pressure;BME280_temperature;BME280_humidity;BME280_pressure;Samples;Min_cycle;Max_cycle;Signal;HPM_P1;HPM_P2
2022/04/20 00:00:31;;;;;;;6.03;3.47;;;10.00;73.90;;;;;;4932928;29;20384;-70
2022/04/20 00:02:56;;;;;;;7.78;4.15;;;10.00;74.50;;;;;;4936267;29;20490;-70
2022/04/20 00:05:22;;;;;;;5.57;2.78;;;9.90;74.50;;;;;;4936561;29;20035;-70
2022/04/20 00:07:47;;;;;;;5.00;3.42;;;9.90;74.60;;;;;;4937612;29;20023;-70
2022/04/20 00:10:13;;;;;;;4.78;3.00;;;9.90;74.60;;;;;;4931108;29;20036;-70
2022/04/20 00:12:38;;;;;;;5.80;3.03;;;9.90;74.60;;;;;;4926899;29;20052;-70
2022/04/20 00:15:04;;;;;;;6.30;3.13;;;9.90;74.70;;;;;;4936205;29;20114;-70
2022/04/20 00:17:30;;;;;;;4.78;3.00;;;9.90;74.70;;;;;;4926971;29;20040;-70
2022/04/20 00:19:55;;;;;;;4.38;2.70;;;9.90;74.90;;;;;;4934772;29;20087;-70
2022/04/20 00:22:21;;;;;;;5.40;2.70;;;10.00;74.90;;;;;;4937332;29;20513;-70
2022/04/20 00:24:46;;;;;;;4.45;2.67;;;10.00;75.10;;;;;;4930629;29;20023;-71
2022/04/20 00:27:12;;;;;;;5.60;2.88;;;10.00;75.30;;;;;;4937618;29;20032;-70
2022/04/20 00:29:37;;;;;;;4.32;2.72;;;10.00;75.50;;;;;;4936279;29;20020;-70
2022/04/20 00:32:03;;;;;;;5.53;2.50;;;10.00;75.50;;;;;;4920014;29;20034;-70
2022/04/20 00:34:29;;;;;;;5.25;2.78;;;10.00;75.60;;;;;;4934194;29;20059;-70
2022/04/20 00:36:55;;;;;;;6.53;3.00;;;9.90;76.30;;;;;;4937339;29;20126;-70
2022/04/20 00:39:20;;;;;;;5.55;2.83;;;9.90;76.30;;;;;;4933752;29;20032;-70
2022/04/20 00:41:46;;;;;;;5.80;2.92;;;9.90;76.70;;;;;;4919938;29;20372;-71
2022/04/20 00:44:12;;;;;;;6.30;3.08;;;9.80;77.00;;;;;;4936682;29;20028;-70
2022/04/20 00:46:40;;;;;;;5.53;3.05;;;9.80;76.80;;;;;;4935387;29;20031;-70
2022/04/20 00:49:06;;;;;;;5.82;2.95;;;9.90;77.10;;;;;;4936086;29;20404;-70
2022/04/20 00:51:32;;;;;;;6.68;2.88;;;9.80;77.10;;;;;;4932784;29;20079;-69
2022/04/20 00:54:01;;;;;;;7.82;3.35;;;9.70;77.40;;;;;;4936306;29;20111;-69
2022/04/20 00:56:30;;;;;;;7.60;3.00;;;9.70;77.40;;;;;;4935770;29;20039;-69
2022/04/20 00:58:57;;;;;;;5.60;2.78;;;9.70;78.40;;;;;;4917961;29;20149;-70
2022/04/20 01:01:26;;;;;;;5.80;3.13;;;9.60;78.40;;;;;;4934272;29;20035;-70
2022/04/20 01:03:52;;;;;;;4.35;2.72;;;9.60;78.30;;;;;;4936217;29;20034;-70
2022/04/20 01:06:18;;;;;;;6.85;3.35;;;9.60;78.20;;;;;;4933864;29;20035;-70
2022/04/20 01:08:44;;;;;;;7.57;3.08;;;9.60;78.60;;;;;;4936258;29;20031;-70
2022/04/20 01:11:09;;;;;;;4.63;2.83;;;9.60;78.50;;;;;;4935513;29;20467;-70
2022/04/20 01:13:35;;;;;;;5.03;2.70;;;9.70;79.30;;;;;;4927656;29;20027;-70
2022/04/20 01:16:00;;;;;;;5.75;3.55;;;9.60;79.00;;;;;;4922320;29;20082;-70
2022/04/20 01:18:26;;;;;;;6.30;3.00;;;9.60;79.20;;;;;;4925046;29;20092;-69
2022/04/20 01:20:51;;;;;;;5.22;2.92;;;9.60;79.00;;;;;;4934685;29;20024;-70
2022/04/20 01:23:17;;;;;;;6.10;3.00;;;9.60;79.00;;;;;;4936015;29;20057;-70
2022/04/20 01:25:42;;;;;;;5.82;3.22;;;9.60;79.40;;;;;;4934928;29;20034;-70
2022/04/20 01:28:09;;;;;;;6.32;3.10;;;9.60;79.30;;;;;;4936375;29;20043;-70
2022/04/20 01:30:35;;;;;;;5.70;2.80;;;9.60;79.30;;;;;;4934095;29;20036;-69
2022/04/20 01:33:01;;;;;;;7.65;3.30;;;9.60;79.30;;;;;;4935945;29;20110;-70
2022/04/20 01:35:26;;;;;;;7.93;3.42;;;9.60;79.70;;;;;;4934473;29;20040;-70
2022/04/20 01:37:52;;;;;;;5.22;3.08;;;9.50;80.00;;;;;;4933515;29;20023;-69
2022/04/20 01:40:18;;;;;;;5.82;3.08;;;9.50;80.20;;;;;;4934928;29;20036;-69
2022/04/20 01:42:43;;;;;;;5.00;3.33;;;9.50;80.30;;;;;;4935873;29;20038;-70
2022/04/20 01:45:09;;;;;;;7.65;3.47;;;9.50;80.50;;;;;;4934534;29;20040;-70
2022/04/20 01:47:35;;;;;;;6.68;3.80;;;9.50;80.90;;;;;;4934683;29;20032;-70
2022/04/20 01:50:00;;;;;;;5.18;3.33;;;9.40;81.50;;;;;;4933726;29;20047;-69
2022/04/20 01:52:26;;;;;;;5.80;3.92;;;9.40;81.70;;;;;;4935829;29;20387;-71
2022/04/20 01:54:51;;;;;;;5.03;3.30;;;9.40;81.50;;;;;;4935379;29;20019;-71
2022/04/20 01:57:17;;;;;;;5.93;3.53;;;9.40;81.70;;;;;;4933631;29;20215;-70
2022/04/20 01:59:42;;;;;;;5.80;3.10;;;9.40;81.70;;;;;;4917047;29;20039;-70
2022/04/20 02:04:52;;;;;;;6.68;3.60;;;9.30;82.30;;;;;;4919197;29;20028;-70
2022/04/20 02:07:17;;;;;;;8.13;3.78;;;9.30;82.50;;;;;;4935873;29;20403;-70
2022/04/20 02:09:43;;;;;;;6.43;3.80;;;9.30;82.70;;;;;;4934030;29;20035;-71
2022/04/20 02:12:08;;;;;;;5.93;3.65;;;9.30;82.70;;;;;;4934268;29;20154;-70
2022/04/20 02:14:34;;;;;;;7.78;4.03;;;9.30;82.90;;;;;;4933852;29;20036;-70
2022/04/20 02:16:59;;;;;;;6.75;3.72;;;9.30;83.20;;;;;;4933704;29;20039;-70
2022/04/20 02:19:25;;;;;;;10.10;3.45;;;9.30;83.40;;;;;;4933471;29;20036;-70
2022/04/20 02:21:50;;;;;;;7.28;3.78;;;9.30;83.30;;;;;;4934776;29;20508;-70
2022/04/20 02:24:16;;;;;;;5.97;3.67;;;9.30;83.40;;;;;;4933789;29;20099;-69
2022/04/20 02:26:42;;;;;;;6.63;3.53;;;9.20;83.60;;;;;;4925763;29;20024;-70
2022/04/20 02:29:07;;;;;;;5.95;4.22;;;9.30;83.50;;;;;;4935044;29;20035;-70
2022/04/20 02:31:33;;;;;;;8.30;3.80;;;9.30;84.10;;;;;;4918052;29;20032;-70
2022/04/20 02:33:59;;;;;;;6.78;3.88;;;9.30;84.20;;;;;;4921974;29;20460;-69
2022/04/20 02:36:28;;;;;;;7.00;3.40;;;9.20;84.20;;;;;;4933792;29;20043;-71
2022/04/20 02:38:54;;;;;;;5.32;3.38;;;9.20;84.30;;;;;;4935044;29;20034;-70
2022/04/20 02:41:20;;;;;;;7.43;3.60;;;9.20;84.40;;;;;;4919969;29;20031;-70
2022/04/20 02:43:45;;;;;;;10.00;3.80;;;9.30;84.30;;;;;;4921350;29;20023;-70
2022/04/20 02:46:11;;;;;;;8.35;3.85;;;9.30;84.30;;;;;;4933487;29;20225;-69
2022/04/20 02:48:37;;;;;;;6.97;3.58;;;9.30;84.30;;;;;;4916875;29;20110;-69
2022/04/20 02:51:02;;;;;;;9.00;3.88;;;9.30;84.40;;;;;;4933347;29;20036;-69
2022/04/20 02:53:28;;;;;;;9.18;4.20;;;9.40;84.50;;;;;;4934739;29;20027;-70
2022/04/20 02:55:53;;;;;;;6.57;3.70;;;9.40;84.70;;;;;;4933582;29;20039;-69
2022/04/20 02:58:19;;;;;;;7.43;3.42;;;9.30;84.80;;;;;;4917538;29;20028;-69
2022/04/20 03:00:45;;;;;;;4.53;3.28;;;9.40;84.90;;;;;;4933353;29;20054;-69
2022/04/20 03:03:12;;;;;;;6.60;3.53;;;9.40;85.20;;;;;;4934243;29;20042;-69
2022/04/20 03:05:37;;;;;;;7.03;3.63;;;9.40;85.20;;;;;;4933134;29;20031;-69
2022/04/20 03:08:03;;;;;;;6.45;3.70;;;9.40;85.20;;;;;;4931730;29;20344;-69
2022/04/20 03:10:29;;;;;;;6.68;3.60;;;9.40;85.10;;;;;;4904850;29;20029;-69
2022/04/20 03:12:55;;;;;;;6.95;3.72;;;9.30;85.30;;;;;;4926469;29;20121;-69
2022/04/20 03:15:20;;;;;;;5.80;4.00;;;9.30;85.40;;;;;;4933535;29;20028;-69
2022/04/20 03:17:46;;;;;;;9.45;3.58;;;9.30;85.60;;;;;;4933957;29;20483;-69
2022/04/20 03:20:11;;;;;;;9.07;4.18;;;9.30;85.60;;;;;;4932648;29;20035;-69
2022/04/20 03:22:37;;;;;;;10.10;4.35;;;9.40;85.70;;;;;;4917154;29;20032;-69
2022/04/20 03:25:03;;;;;;;10.57;3.85;;;9.40;85.90;;;;;;4919492;29;20031;-70
2022/04/20 03:27:28;;;;;;;9.48;3.50;;;9.40;86.10;;;;;;4934275;29;20115;-70
2022/04/20 03:29:54;;;;;;;7.90;3.88;;;9.40;86.00;;;;;;4932847;29;20027;-70
2022/04/20 03:32:20;;;;;;;6.60;3.70;;;9.40;86.00;;;;;;4934035;29;20162;-69
2022/04/20 03:34:45;;;;;;;5.93;3.50;;;9.40;86.20;;;;;;4924932;29;20035;-70
2022/04/20 03:37:11;;;;;;;5.95;3.78;;;9.40;86.20;;;;;;4932528;29;20499;-69
2022/04/20 03:39:37;;;;;;;6.72;3.85;;;9.40;86.20;;;;;;4932268;29;20023;-71
2022/04/20 03:42:04;;;;;;;7.43;3.72;;;9.40;86.40;;;;;;4915023;29;20028;-70
2022/04/20 03:44:30;;;;;;;8.52;4.22;;;9.40;87.00;;;;;;4915215;29;20612;-70
2022/04/20 03:46:55;;;;;;;8.27;4.20;;;9.30;86.80;;;;;;4933641;29;20037;-72
2022/04/20 03:49:21;;;;;;;8.63;4.03;;;9.30;87.20;;;;;;4916847;29;20460;-70
2022/04/20 03:51:46;;;;;;;6.45;3.72;;;9.30;87.30;;;;;;4933194;29;20031;-71
2022/04/20 03:54:13;;;;;;;6.28;3.97;;;9.30;87.30;;;;;;4932217;29;20028;-71
2022/04/20 03:59:22;;;;;;;10.03;5.70;;;9.20;88.30;;;;;;4933541;29;20039;-71
2022/04/20 04:01:49;;;;;;;10.25;4.38;;;9.20;88.20;;;;;;4900761;29;20276;-71
2022/04/20 04:04:15;;;;;;;8.10;3.92;;;9.20;88.60;;;;;;4933903;29;20475;-70
2022/04/20 04:06:40;;;;;;;8.73;4.10;;;9.10;88.70;;;;;;4932875;29;20118;-71
2022/04/20 04:09:06;;;;;;;6.85;4.22;;;9.20;89.00;;;;;;4933082;29;20027;-71
2022/04/20 04:11:31;;;;;;;12.20;4.00;;;9.20;89.20;;;;;;4914748;29;20044;-70
2022/04/20 04:13:57;;;;;;;7.32;4.45;;;9.20;89.20;;;;;;4914326;29;20028;-71
2022/04/20 04:16:22;;;;;;;7.53;4.72;;;9.20;89.50;;;;;;4923119;29;20440;-71
2022/04/20 04:18:48;;;;;;;8.80;4.57;;;9.20;90.20;;;;;;4914711;29;20020;-70
2022/04/20 04:21:13;;;;;;;11.63;5.03;;;9.10;90.30;;;;;;4914246;29;20399;-70
2022/04/20 04:23:39;;;;;;;10.27;4.88;;;9.10;90.40;;;;;;4914732;29;20060;-69
2022/04/20 04:26:04;;;;;;;8.90;4.88;;;9.10;90.50;;;;;;4927170;29;20119;-70
2022/04/20 04:28:30;;;;;;;7.70;4.28;;;9.20;90.50;;;;;;4933349;29;20027;-69
2022/04/20 04:30:55;;;;;;;8.68;4.68;;;9.20;90.70;;;;;;4921433;29;20090;-70
2022/04/20 04:33:21;;;;;;;10.25;4.97;;;9.30;90.50;;;;;;4914767;29;20024;-71
2022/04/20 04:35:46;;;;;;;7.38;4.80;;;9.30;90.70;;;;;;4924383;29;20439;-71
2022/04/20 04:38:13;;;;;;;6.75;4.45;;;9.30;90.70;;;;;;4933583;29;20028;-71
2022/04/20 04:40:39;;;;;;;8.73;5.25;;;9.40;90.80;;;;;;4923873;29;20448;-69
2022/04/20 04:43:04;;;;;;;7.05;4.72;;;9.40;90.80;;;;;;4924433;29;20111;-70
2022/04/20 04:50:58;;;;;;;7.80;5.20;;;9.50;91.10;;;;;;4935818;29;20032;-71
2022/04/20 04:53:24;;;;;;;10.00;5.18;;;9.50;91.30;;;;;;4936697;29;20042;-71
2022/04/20 04:55:49;;;;;;;8.88;5.50;;;9.40;91.40;;;;;;4935632;29;20047;-70
2022/04/20 04:58:15;;;;;;;10.15;5.20;;;9.40;91.50;;;;;;4936103;29;20500;-70
2022/04/20 05:00:40;;;;;;;9.55;5.55;;;9.40;91.70;;;;;;4936028;29;20038;-70
2022/04/20 05:03:08;;;;;;;8.40;5.25;;;9.40;91.60;;;;;;4936081;29;20030;-71
2022/04/20 05:05:34;;;;;;;9.35;4.97;;;9.40;91.70;;;;;;4935685;29;20043;-71
2022/04/20 05:07:59;;;;;;;9.93;5.38;;;9.40;91.90;;;;;;4936294;29;20189;-71
2022/04/20 05:10:25;;;;;;;10.20;5.10;;;9.50;92.00;;;;;;4929587;29;20044;-71
2022/04/20 05:12:50;;;;;;;11.05;5.68;;;9.50;92.10;;;;;;4917059;29;20595;-71
2022/04/20 05:15:16;;;;;;;7.65;5.32;;;9.50;92.20;;;;;;4914969;29;20036;-71
2022/04/20 05:17:41;;;;;;;7.20;4.90;;;9.60;92.10;;;;;;4921711;29;20036;-71
2022/04/20 05:20:08;;;;;;;9.60;5.45;;;9.60;92.10;;;;;;4922358;29;20115;-70
2022/04/20 05:22:33;;;;;;;8.32;5.82;;;9.70;92.30;;;;;;4936168;29;20119;-70
2022/04/20 05:24:58;;;;;;;10.45;5.97;;;9.70;92.20;;;;;;4931767;29;20096;-71
2022/04/20 05:27:24;;;;;;;12.07;7.07;;;9.70;92.10;;;;;;4917603;29;20381;-71
2022/04/20 05:29:49;;;;;;;10.07;5.95;;;9.70;92.10;;;;;;4907400;29;20044;-70
2022/04/20 05:32:15;;;;;;;8.23;5.28;;;9.70;92.10;;;;;;4923455;29;20062;-71
2022/04/20 05:34:41;;;;;;;9.88;5.78;;;9.70;92.20;;;;;;4918502;29;20069;-70
2022/04/20 05:42:35;;;;;;;8.20;5.65;;;9.70;92.30;;;;;;4936373;29;20067;-75
2022/04/20 05:45:02;;;;;;;9.18;5.65;;;9.70;92.30;;;;;;4934741;29;20016;-71
2022/04/20 05:47:29;;;;;;;7.18;5.45;;;9.60;92.40;;;;;;4931322;29;20391;-70
2022/04/20 05:49:54;;;;;;;8.07;5.40;;;9.60;92.50;;;;;;4920467;29;20038;-69
2022/04/20 05:52:20;;;;;;;9.60;5.63;;;9.70;92.50;;;;;;4935712;29;20039;-70
2022/04/20 05:54:45;;;;;;;8.32;5.68;;;9.70;92.60;;;;;;4933429;29;20027;-69
2022/04/20 05:57:11;;;;;;;9.13;5.60;;;9.70;92.50;;;;;;4921794;29;20372;-69
2022/04/20 05:59:36;;;;;;;7.50;5.00;;;9.70;92.50;;;;;;4926197;29;20111;-69
2022/04/20 06:02:02;;;;;;;9.00;5.97;;;9.80;92.40;;;;;;4935638;29;20036;-69
2022/04/20 06:04:29;;;;;;;10.15;6.22;;;9.80;92.40;;;;;;4901942;29;20036;-69
2022/04/20 06:06:54;;;;;;;8.65;5.20;;;9.80;92.60;;;;;;4899999;29;20040;-70
2022/04/20 06:09:20;;;;;;;8.20;5.20;;;9.80;92.50;;;;;;4917114;29;20491;-70
2022/04/20 06:11:45;;;;;;;8.07;5.68;;;9.80;92.60;;;;;;4934400;29;20183;-70
2022/04/20 06:14:11;;;;;;;9.55;5.85;;;9.90;92.70;;;;;;4935800;29;20028;-69
2022/04/20 06:16:36;;;;;;;11.30;5.80;;;9.90;92.70;;;;;;4917833;29;20135;-69
2022/04/20 06:19:02;;;;;;;7.38;5.15;;;10.00;92.70;;;;;;4906698;29;20020;-69
2022/04/20 06:21:28;;;;;;;10.70;5.93;;;10.00;92.50;;;;;;4932107;29;20038;-70
2022/04/20 06:23:53;;;;;;;7.07;4.93;;;10.20;92.40;;;;;;4935068;29;20106;-67
2022/04/20 06:26:19;;;;;;;8.10;5.35;;;10.30;92.30;;;;;;4933837;29;20524;-67
2022/04/20 06:28:44;;;;;;;9.20;5.43;;;10.30;92.10;;;;;;4915748;29;20086;-67
2022/04/20 06:31:10;;;;;;;11.15;5.50;;;10.40;92.10;;;;;;4912124;29;20460;-65
2022/04/20 06:33:35;;;;;;;7.28;4.90;;;10.40;91.90;;;;;;4915454;29;20059;-67
2022/04/20 06:36:01;;;;;;;9.02;5.30;;;10.50;91.80;;;;;;4909808;29;20047;-67
2022/04/20 06:38:27;;;;;;;8.07;5.20;;;10.50;91.50;;;;;;4930759;29;20032;-67
2022/04/20 06:40:53;;;;;;;8.90;5.22;;;10.50;91.40;;;;;;4932305;29;20036;-66
2022/04/20 06:43:20;;;;;;;9.00;5.80;;;10.50;91.40;;;;;;4933512;29;20023;-66
2022/04/20 06:45:45;;;;;;;7.82;5.65;;;10.50;91.10;;;;;;4924352;29;20044;-67
2022/04/20 06:48:11;;;;;;;8.02;4.35;;;10.40;91.20;;;;;;4924381;29;20024;-66
2022/04/20 06:50:39;;;;;;;8.35;5.60;;;10.50;91.40;;;;;;4922848;29;20059;-66
2022/04/20 06:58:33;;;;;;;9.17;5.27;;;10.60;91.00;;;;;;4933876;29;20031;-66
2022/04/20 07:00:58;;;;;;;9.93;4.82;;;10.60;91.00;;;;;;4925317;29;20051;-67
2022/04/20 07:03:24;;;;;;;8.38;4.75;;;10.70;90.80;;;;;;4933645;29;20031;-67
2022/04/20 07:05:50;;;;;;;6.90;4.47;;;10.80;90.50;;;;;;4925862;29;20395;-66
2022/04/20 07:08:16;;;;;;;8.90;4.55;;;10.80;90.30;;;;;;4921889;29;20027;-66
2022/04/20 07:10:41;;;;;;;10.45;4.32;;;10.80;90.20;;;;;;4922610;29;20035;-67
2022/04/20 07:13:07;;;;;;;5.72;4.10;;;11.00;90.20;;;;;;4918314;29;20055;-66
2022/04/20 07:15:32;;;;;;;6.97;4.43;;;11.10;90.10;;;;;;4924498;29;20032;-66
2022/04/20 07:17:58;;;;;;;8.68;4.20;;;11.20;90.00;;;;;;4926545;29;20039;-66
2022/04/20 07:20:23;;;;;;;6.93;4.88;;;11.20;89.10;;;;;;4916029;29;20030;-66
2022/04/20 07:22:50;;;;;;;6.07;4.10;;;11.20;88.70;;;;;;4916330;29;20038;-67
2022/04/20 07:25:16;;;;;;;7.20;4.10;;;11.10;88.50;;;;;;4924909;29;20031;-67
2022/04/20 07:27:42;;;;;;;6.65;4.43;;;11.10;88.60;;;;;;4902675;29;20032;-67
2022/04/20 07:30:08;;;;;;;6.43;4.53;;;11.20;88.60;;;;;;4924883;29;20495;-66
2022/04/20 07:32:34;;;;;;;9.10;4.68;;;11.20;88.40;;;;;;4928490;29;20436;-66
2022/04/20 07:34:59;;;;;;;7.35;4.57;;;11.10;88.00;;;;;;4930069;29;20289;-67
2022/04/20 07:37:25;;;;;;;5.90;4.43;;;11.10;87.80;;;;;;4928360;29;20146;-66
2022/04/20 07:39:50;;;;;;;7.38;4.22;;;11.10;87.90;;;;;;4930636;29;20058;-66
2022/04/20 07:42:16;;;;;;;6.85;4.15;;;11.10;87.60;;;;;;4927055;29;20479;-68
2022/04/20 07:44:41;;;;;;;6.90;4.63;;;11.10;87.90;;;;;;4931838;29;20036;-69
2022/04/20 07:47:07;;;;;;;8.75;3.92;;;11.10;87.10;;;;;;4930949;29;20028;-68
2022/04/20 07:52:20;;;;;;;6.38;3.55;;;11.00;87.10;;;;;;4928134;29;20063;-69
2022/04/20 07:54:45;;;;;;;5.78;3.80;;;11.00;86.70;;;;;;4920200;29;20067;-67
2022/04/20 07:57:14;;;;;;;8.73;3.83;;;11.10;86.80;;;;;;4919681;29;20079;-68
2022/04/20 07:59:39;;;;;;;7.30;3.90;;;11.10;87.10;;;;;;4926218;29;20035;-69
2022/04/20 08:02:06;;;;;;;5.70;3.90;;;11.20;86.50;;;;;;4919988;29;20496;-69
2022/04/20 08:04:31;;;;;;;6.43;4.15;;;11.20;86.70;;;;;;4908102;29;20032;-69
2022/04/20 08:06:57;;;;;;;6.75;4.60;;;11.40;86.10;;;;;;4932857;29;20031;-69
2022/04/20 08:09:23;;;;;;;6.93;3.75;;;11.60;85.80;;;;;;4923258;29;20433;-68
2022/04/20 08:11:49;;;;;;;10.02;3.67;;;11.80;85.00;;;;;;4931782;29;20044;-66
2022/04/20 08:14:15;;;;;;;5.72;3.22;;;12.00;84.20;;;;;;4906445;29;20036;-68
2022/04/20 08:16:41;;;;;;;8.45;4.25;;;12.10;82.40;;;;;;4931124;29;20062;-72
2022/04/20 08:19:07;;;;;;;5.80;4.15;;;12.10;80.90;;;;;;4927122;29;20028;-72
2022/04/20 08:21:33;;;;;;;9.00;4.00;;;12.30;80.90;;;;;;4923790;29;20036;-70
2022/04/20 08:23:59;;;;;;;6.40;3.33;;;12.30;79.70;;;;;;4936059;29;20107;-70
2022/04/20 08:26:24;;;;;;;6.18;3.55;;;12.50;80.00;;;;;;4927171;29;20058;-69
2022/04/20 08:28:50;;;;;;;5.25;2.90;;;12.70;79.50;;;;;;4932512;29;20028;-69
2022/04/20 08:31:15;;;;;;;4.50;2.60;;;12.80;78.70;;;;;;4930171;29;20040;-69
2022/04/20 08:33:42;;;;;;;3.60;2.33;;;13.00;78.50;;;;;;4922796;29;20023;-69
2022/04/20 08:36:08;;;;;;;4.53;2.60;;;13.10;77.20;;;;;;4934997;29;20136;-69
2022/04/20 08:38:33;;;;;;;4.28;2.72;;;13.10;75.80;;;;;;4936291;29;20035;-69
2022/04/20 08:41:00;;;;;;;3.92;2.50;;;13.20;75.80;;;;;;4935010;29;20555;-69
2022/04/20 08:43:28;;;;;;;7.10;2.63;;;13.30;75.10;;;;;;4934020;29;20036;-69
2022/04/20 08:45:56;;;;;;;4.13;2.53;;;13.30;73.60;;;;;;4935481;29;20032;-69
2022/04/20 08:48:21;;;;;;;3.63;2.17;;;13.30;72.40;;;;;;4918325;29;20388;-69
2022/04/20 08:50:48;;;;;;;4.88;2.88;;;13.30;72.60;;;;;;4932185;29;20031;-69
2022/04/20 08:53:15;;;;;;;4.70;2.80;;;13.20;70.90;;;;;;4937170;29;20055;-68
2022/04/20 08:55:40;;;;;;;4.00;2.40;;;13.20;71.50;;;;;;4934648;29;20044;-69
2022/04/20 08:58:07;;;;;;;3.75;2.47;;;13.10;71.40;;;;;;4936127;29;20024;-70
2022/04/20 09:00:33;;;;;;;6.95;2.60;;;13.10;71.70;;;;;;4934611;29;20046;-69
2022/04/20 09:03:01;;;;;;;4.50;2.72;;;13.00;71.80;;;;;;4934745;29;20028;-70
2022/04/20 09:05:28;;;;;;;5.60;3.65;;;13.00;72.00;;;;;;4936604;29;20031;-70
2022/04/20 09:07:55;;;;;;;5.18;3.03;;;12.80;72.50;;;;;;4935601;29;20447;-69
2022/04/20 09:10:21;;;;;;;4.63;3.15;;;12.60;73.50;;;;;;4936696;29;20023;-70
2022/04/20 09:13:00;;;;;;;4.53;2.67;;;12.60;74.30;;;;;;4936044;29;20051;-68
2022/04/20 09:15:31;;;;;;;5.10;2.85;;;12.50;74.80;;;;;;4936577;29;20028;-69
2022/04/20 09:17:57;;;;;;;4.85;2.63;;;12.30;75.70;;;;;;4936410;29;20399;-70
2022/04/20 09:20:23;;;;;;;7.63;3.15;;;12.30;76.70;;;;;;4936631;29;20022;-69
2022/04/20 09:23:03;;;;;;;5.10;2.97;;;12.10;77.90;;;;;;4936389;29;20028;-69
2022/04/20 09:25:37;;;;;;;7.60;4.22;;;12.10;78.50;;;;;;4936419;29;20369;-69
2022/04/20 09:28:04;;;;;;;7.82;3.45;;;12.10;79.20;;;;;;4936134;29;20035;-69
2022/04/20 09:30:35;;;;;;;6.32;3.30;;;12.20;79.60;;;;;;4936511;29;20419;-70
2022/04/20 09:33:06;;;;;;;5.53;3.08;;;12.20;80.20;;;;;;4935663;29;20024;-69
2022/04/20 09:35:53;;;;;;;5.35;3.33;;;12.20;80.90;;;;;;4935560;29;20376;-70
2022/04/20 09:38:21;;;;;;;7.57;3.20;;;12.20;81.20;;;;;;4935971;29;20114;-70
2022/04/20 09:40:47;;;;;;;4.53;3.17;;;12.20;81.60;;;;;;4936057;29;20391;-70
2022/04/20 09:43:18;;;;;;;9.10;4.05;;;12.20;81.70;;;;;;4935948;29;20043;-70
2022/04/20 09:46:00;;;;;;;7.88;3.35;;;12.30;82.20;;;;;;4940627;29;20135;-71
2022/04/20 09:51:14;;;;;;;5.22;3.05;;;12.40;82.50;;;;;;4935975;29;20027;-69
2022/04/20 09:53:41;;;;;;;4.93;3.50;;;12.50;83.10;;;;;;4916987;29;20529;-73
2022/04/20 09:56:21;;;;;;;4.47;3.10;;;12.50;82.60;;;;;;4935821;29;20040;-74
2022/04/20 09:58:56;;;;;;;11.90;4.43;;;12.50;82.60;;;;;;4935871;29;20479;-73
2022/04/20 10:01:30;;;;;;;37.63;7.82;;;12.60;82.60;;;;;;4933068;29;20054;-74
2022/04/20 10:03:57;;;;;;;;;;;12.70;82.80;;;;;;4934186;29;20107;-74
2022/04/20 10:06:23;;;;;;;32.72;8.65;;;12.80;82.40;;;;;;4935880;29;19907;-73
2022/04/20 10:08:49;;;;;;;31.60;9.18;;;12.80;82.90;;;;;;4935426;29;20043;-74
2022/04/20 10:11:15;;;;;;;15.95;5.32;;;13.00;83.10;;;;;;4916713;29;20044;-73
2022/04/20 10:13:41;;;;;;;8.10;3.75;;;13.00;83.40;;;;;;4931546;29;20042;-74
2022/04/20 10:16:09;;;;;;;5.88;3.17;;;13.10;82.50;;;;;;4935428;29;20040;-74
2022/04/20 10:18:39;;;;;;;9.05;3.17;;;13.10;82.30;;;;;;4933661;29;20101;-74
2022/04/20 10:21:12;;;;;;;6.40;3.08;;;13.20;82.60;;;;;;4929494;29;20031;-74
2022/04/20 10:23:47;;;;;;;4.20;2.90;;;13.30;82.50;;;;;;4935576;29;20133;-74
2022/04/20 10:26:14;;;;;;;4.53;2.95;;;13.30;82.20;;;;;;4935381;29;20039;-74
2022/04/20 10:28:58;;;;;;;7.10;3.55;;;13.40;81.90;;;;;;4935392;29;20091;-74
2022/04/20 10:31:40;;;;;;;6.80;3.00;;;13.50;82.10;;;;;;4934821;29;20549;-74
2022/04/20 10:34:06;;;;;;;6.72;2.80;;;13.60;82.30;;;;;;4933856;29;20094;-74
2022/04/20 10:36:33;;;;;;;7.03;3.33;;;13.70;81.90;;;;;;4935063;29;20046;-72
2022/04/20 10:39:26;;;;;;;5.45;3.03;;;13.80;81.70;;;;;;4934902;29;20024;-73
2022/04/20 10:42:18;;;;;;;6.93;3.05;;;14.00;81.70;;;;;;4933965;29;20051;-73
2022/04/20 10:44:55;;;;;;;6.15;3.25;;;14.10;81.80;;;;;;4932430;29;20066;-73
2022/04/20 10:47:25;;;;;;;16.20;3.70;;;14.20;82.30;;;;;;4934524;29;20055;-73
2022/04/20 10:49:52;;;;;;;6.53;4.03;;;14.20;82.60;;;;;;4916602;29;20383;-73
2022/04/20 10:52:35;;;;;;;5.70;3.83;;;14.30;82.50;;;;;;4931303;29;20024;-73
2022/04/20 10:55:00;;;;;;;7.10;3.95;;;14.40;82.60;;;;;;4933377;29;20040;-73
2022/04/20 10:57:34;;;;;;;5.68;3.50;;;14.30;82.90;;;;;;4920407;29;20039;-73
2022/04/20 11:00:19;;;;;;;5.80;3.20;;;14.40;82.90;;;;;;4915822;29;20036;-73
2022/04/20 11:03:01;;;;;;;5.13;3.38;;;14.40;82.90;;;;;;4931209;29;20036;-73
2022/04/20 11:05:27;;;;;;;3.50;2.88;;;14.40;83.10;;;;;;4933988;29;20031;-72
2022/04/20 11:08:11;;;;;;;5.38;3.38;;;14.50;83.00;;;;;;4933217;29;20043;-71
2022/04/20 11:10:43;;;;;;;5.73;3.23;;;14.60;83.00;;;;;;4917002;29;20375;-73
2022/04/20 11:19:10;;;;;;;4.63;3.05;;;14.70;82.50;;;;;;4933347;29;20040;-73
2022/04/20 11:21:37;;;;;;;4.35;2.58;;;14.80;82.30;;;;;;4934049;29;20558;-72
2022/04/20 11:24:11;;;;;;;5.40;2.95;;;14.80;82.00;;;;;;4930737;29;20039;-72
2022/04/20 11:26:51;;;;;;;8.85;4.80;;;14.80;81.90;;;;;;4931650;29;20028;-72
2022/04/20 11:29:21;;;;;;;6.15;3.40;;;14.80;81.70;;;;;;4934524;29;20031;-72
2022/04/20 11:31:48;;;;;;;5.00;3.15;;;14.90;81.50;;;;;;4933494;29;20046;-73
2022/04/20 11:34:17;;;;;;;8.55;3.85;;;14.90;81.20;;;;;;4934380;29;20028;-72
2022/04/20 11:36:45;;;;;;;5.00;2.85;;;14.90;81.10;;;;;;4936133;29;20391;-72
2022/04/20 11:39:11;;;;;;;5.20;3.28;;;14.90;80.80;;;;;;4953525;28;20028;-73
2022/04/20 11:41:38;;;;;;;6.47;3.10;;;14.90;80.60;;;;;;4932577;29;20118;-74
2022/04/20 11:44:18;;;;;;;4.95;3.13;;;14.90;80.70;;;;;;4933916;29;20657;-73
2022/04/20 11:46:44;;;;;;;4.38;2.85;;;14.80;80.10;;;;;;4932850;29;20119;-73
2022/04/20 11:49:10;;;;;;;7.65;2.83;;;14.70;80.10;;;;;;4933623;29;20043;-73
2022/04/20 11:51:36;;;;;;;4.68;3.30;;;14.80;80.10;;;;;;4933808;29;20027;-74
2022/04/20 11:54:02;;;;;;;7.28;3.50;;;14.90;80.00;;;;;;4932652;29;20047;-72
2022/04/20 11:56:40;;;;;;;12.40;3.85;;;15.00;80.00;;;;;;4925023;29;20395;-72
2022/04/20 11:59:08;;;;;;;4.50;2.95;;;15.00;79.20;;;;;;4906792;29;20026;-71
2022/04/20 12:01:42;;;;;;;5.90;3.58;;;15.00;79.10;;;;;;4937925;29;20043;-73
2022/04/20 12:04:16;;;;;;;4.13;2.88;;;14.80;78.50;;;;;;4937488;29;20388;-72
2022/04/20 12:06:49;;;;;;;6.68;3.65;;;14.80;78.50;;;;;;4937823;29;20032;-72
2022/04/20 12:09:18;;;;;;;5.55;3.80;;;14.80;78.90;;;;;;4920397;29;20114;-73
2022/04/20 12:11:44;;;;;;;5.10;3.22;;;14.90;78.50;;;;;;4935828;29;20051;-73
2022/04/20 12:14:10;;;;;;;5.63;2.83;;;14.90;78.80;;;;;;4936464;29;20471;-73
2022/04/20 12:16:36;;;;;;;4.32;2.50;;;14.90;78.40;;;;;;4937244;29;20049;-73
2022/04/20 12:19:03;;;;;;;4.05;2.83;;;15.00;78.40;;;;;;4937057;29;20488;-73
2022/04/20 12:21:44;;;;;;;4.25;2.97;;;15.00;78.00;;;;;;4920453;29;20027;-73
2022/04/20 12:24:21;;;;;;;4.65;3.10;;;15.10;77.60;;;;;;4936777;29;20188;-73
2022/04/20 12:26:49;;;;;;;5.05;3.03;;;15.20;77.40;;;;;;4937162;29;20047;-72
2022/04/20 12:29:19;;;;;;;3.90;2.63;;;15.20;76.90;;;;;;4935359;29;20391;-72
2022/04/20 12:31:45;;;;;;;7.70;3.45;;;15.30;76.90;;;;;;4935650;29;20407;-72
2022/04/20 12:34:15;;;;;;;5.35;3.22;;;15.30;76.20;;;;;;4935526;29;20046;-73
2022/04/20 12:36:54;;;;;;;4.78;2.85;;;15.30;76.10;;;;;;4950081;28;20510;-73
2022/04/20 12:39:42;;;;;;;4.55;2.90;;;15.40;76.20;;;;;;4937226;29;20032;-72
2022/04/20 12:42:15;;;;;;;5.78;3.17;;;15.50;76.10;;;;;;4935764;29;20051;-71
2022/04/20 12:44:51;;;;;;;7.70;3.47;;;15.60;75.40;;;;;;4917973;29;20052;-69
2022/04/20 12:47:17;;;;;;;6.85;2.72;;;15.50;74.60;;;;;;4919509;29;20559;-70
2022/04/20 12:49:52;;;;;;;4.65;3.20;;;15.60;75.00;;;;;;4935339;29;20035;-69
2022/04/20 12:52:19;;;;;;;;;;;15.60;74.70;;;;;;4937263;29;20036;-69
2022/04/20 12:54:54;;;;;;;5.82;3.67;;;15.70;74.30;;;;;;4936749;29;20330;-68
2022/04/20 13:02:57;;;;;;;6.40;3.33;;;16.00;73.90;;;;;;4927562;29;20043;-69
2022/04/20 13:05:24;;;;;;;5.47;3.15;;;16.10;73.60;;;;;;4925857;29;20105;-69
2022/04/20 13:07:49;;;;;;;6.80;3.70;;;16.20;73.70;;;;;;4934194;29;20514;-68
2022/04/20 13:10:15;;;;;;;5.82;3.35;;;16.30;73.30;;;;;;4930670;29;20036;-69
2022/04/20 13:12:51;;;;;;;6.63;3.10;;;16.30;73.00;;;;;;4928833;29;20119;-67
2022/04/20 13:15:21;;;;;;;6.78;3.20;;;16.30;73.00;;;;;;4935512;29;20028;-69
2022/04/20 13:17:47;;;;;;;5.25;3.10;;;16.40;72.70;;;;;;4918061;29;20126;-68
2022/04/20 13:20:13;;;;;;;4.57;3.08;;;16.50;72.60;;;;;;4934721;29;20055;-69
2022/04/20 13:22:39;;;;;;;6.30;3.10;;;16.50;72.00;;;;;;4926433;29;20483;-68
2022/04/20 13:27:55;;;;;;;6.20;3.45;;;16.40;71.80;;;;;;4933827;29;20111;-70
2022/04/20 13:30:24;;;;;;;8.38;3.00;;;16.50;72.60;;;;;;4917365;29;20032;-69
2022/04/20 13:32:51;;;;;;;3.70;2.78;;;16.40;71.70;;;;;;4925941;29;20038;-68